createdAt,value
2023-10-22T00:00:56.065Z,99578.56
2023-10-22T00:03:22.829Z,99575.00
2023-10-22T00:05:52.047Z,99576.78
2023-10-22T00:08:20.941Z,99567.03
2023-10-22T00:10:47.857Z,99568.41
2023-10-22T00:13:14.394Z,99580.03
2023-10-22T00:15:41.032Z,99593.25
2023-10-22T00:18:09.920Z,99574.44
2023-10-22T00:20:40.567Z,99579.38
2023-10-22T00:23:09.576Z,99577.56
2023-10-22T00:25:37.327Z,99582.50
2023-10-22T00:28:04.703Z,99587.22
2023-10-22T00:30:33.546Z,99593.16
2023-10-22T00:33:00.194Z,99582.19
2023-10-22T00:35:27.816Z,99590.22
2023-10-22T00:37:54.606Z,99590.03
2023-10-22T00:40:21.089Z,99583.09
2023-10-22T00:42:50.117Z,99583.63
2023-10-22T00:45:16.706Z,99592.25
2023-10-22T00:47:43.422Z,99582.31
2023-10-22T00:50:14.984Z,99598.53
2023-10-22T00:52:42.125Z,99593.16
2023-10-22T00:55:13.126Z,99589.56
2023-10-22T00:57:42.553Z,99596.31
2023-10-22T01:00:10.200Z,99602.44
2023-10-22T01:02:39.384Z,99603.81
2023-10-22T01:05:08.500Z,99607.50
2023-10-22T01:07:37.905Z,99609.06
2023-10-22T01:10:04.826Z,99602.91
2023-10-22T01:12:35.935Z,99608.06
2023-10-22T01:15:05.981Z,99614.56
2023-10-22T01:17:32.775Z,99610.66
2023-10-22T01:19:59.365Z,99608.06
2023-10-22T01:22:25.935Z,99606.63
2023-10-22T01:24:54.968Z,99604.81
2023-10-22T01:27:21.494Z,99609.75
2023-10-22T01:29:48.249Z,99623.63
2023-10-22T01:32:17.365Z,99608.53
2023-10-22T01:34:43.885Z,99620.06
2023-10-22T01:37:10.550Z,99616.16
2023-10-22T01:39:39.738Z,99615.34
2023-10-22T01:42:06.291Z,99629.03
2023-10-22T01:44:32.933Z,99620.72
2023-10-22T01:46:59.699Z,99630.25
2023-10-22T01:49:30.871Z,99634.63
2023-10-22T01:51:57.584Z,99638.97
2023-10-22T01:54:24.258Z,99638.97
2023-10-22T01:56:53.485Z,99650.06
2023-10-22T01:59:22.604Z,99652.31
2023-10-22T02:01:51.464Z,99648.38
2023-10-22T02:04:17.958Z,99653.78
2023-10-22T02:06:44.483Z,99658.34
2023-10-22T02:09:11.082Z,99657.25
2023-10-22T02:11:37.881Z,99665.03
2023-10-22T02:14:06.746Z,99668.50
2023-10-22T02:16:33.323Z,99675.56
2023-10-22T02:18:59.826Z,99674.66
2023-10-22T02:21:27.821Z,99666.78
2023-10-22T02:23:54.521Z,99681.09
2023-10-22T02:26:24.394Z,99686.69
2023-10-22T02:28:53.277Z,99683.53
2023-10-22T02:31:19.945Z,99687.91
2023-10-22T02:33:46.647Z,99688.13
2023-10-22T02:36:16.743Z,99701.00
2023-10-22T02:38:45.682Z,99700.22
2023-10-22T02:41:12.210Z,99695.84
2023-10-22T02:43:38.724Z,99695.06
2023-10-22T02:46:08.137Z,99708.97
2023-10-22T02:48:34.855Z,99715.09
2023-10-22T02:51:04.731Z,99717.88
2023-10-22T02:53:33.944Z,99729.97
2023-10-22T02:56:05.004Z,99739.69
2023-10-22T02:58:33.887Z,99735.53
2023-10-22T03:01:05.813Z,99748.59
2023-10-22T03:03:33.187Z,99749.63
2023-10-22T03:05:59.836Z,99752.19
2023-10-22T03:08:28.998Z,99754.19
2023-10-22T03:10:55.479Z,99767.06
2023-10-22T03:13:22.263Z,99769.84
2023-10-22T03:15:50.768Z,99780.13
2023-10-22T03:18:17.416Z,99787.06
2023-10-22T03:20:44.073Z,99786.09
2023-10-22T03:23:10.771Z,99797.38
2023-10-22T03:25:41.948Z,99811.03
2023-10-22T03:28:10.810Z,99823.34
2023-10-22T03:30:41.161Z,99825.13
2023-10-22T03:33:07.859Z,99837.00
2023-10-22T03:35:36.910Z,99839.19
2023-10-22T03:38:04.247Z,99840.97
2023-10-22T03:40:35.867Z,99862.56
2023-10-22T03:43:02.331Z,99867.16
2023-10-22T03:45:29.041Z,99874.28
2023-10-22T03:47:55.689Z,99876.28
2023-10-22T03:50:24.787Z,99883.44
2023-10-22T03:52:53.887Z,99890.38
2023-10-22T03:55:20.409Z,99914.53
2023-10-22T03:57:49.406Z,99918.88
2023-10-22T04:00:18.704Z,99931.75
2023-10-22T04:02:47.612Z,99944.06
2023-10-22T04:05:14.215Z,99945.25
2023-10-22T04:07:40.716Z,99954.97
2023-10-22T04:10:11.369Z,99957.97
2023-10-22T04:12:38.031Z,99969.44
2023-10-22T04:15:05.371Z,99972.25
2023-10-22T04:17:32.099Z,99986.91
2023-10-22T04:20:00.971Z,99990.03
2023-10-22T04:22:30.524Z,100000.53
2023-10-22T04:25:01.970Z,99998.19
2023-10-22T04:27:32.226Z,100005.09
2023-10-22T04:30:06.145Z,100004.31
2023-10-22T04:32:38.312Z,100022.75
2023-10-22T04:35:05.310Z,100018.59
2023-10-22T04:37:32.083Z,100027.72
2023-10-22T04:40:00.002Z,100034.66
2023-10-22T04:42:28.440Z,100047.13
2023-10-22T04:44:57.238Z,100053.47
2023-10-22T04:47:26.325Z,100050.31
2023-10-22T04:49:54.544Z,100070.09
2023-10-22T04:52:31.861Z,100067.75
2023-10-22T04:55:01.934Z,100073.66
2023-10-22T04:57:31.602Z,100080.59
2023-10-22T04:59:58.501Z,100089.88
2023-10-22T05:02:25.306Z,100093.25
2023-10-22T05:04:53.418Z,100094.03
2023-10-22T05:07:24.709Z,100101.97
2023-10-22T05:09:53.587Z,100104.53
2023-10-22T05:12:22.507Z,100103.97
2023-10-22T05:14:49.070Z,100108.09
2023-10-22T05:17:15.632Z,100119.19
2023-10-22T05:19:44.668Z,100115.81
2023-10-22T05:22:11.222Z,100117.59
2023-10-22T05:24:37.968Z,100123.72
2023-10-22T05:27:05.004Z,100135.59
2023-10-22T05:29:31.571Z,100134.22
2023-10-22T05:31:58.111Z,100145.28
2023-10-22T05:34:24.656Z,100146.50
2023-10-22T05:36:51.161Z,100150.06
2023-10-22T05:39:17.783Z,100155.22
2023-10-22T05:41:46.632Z,100162.31
2023-10-22T05:44:15.637Z,100167.47
2023-10-22T05:46:42.595Z,100171.03
2023-10-22T05:49:14.686Z,100184.88
2023-10-22T05:51:41.189Z,100185.88
2023-10-22T05:54:08.551Z,100191.03
2023-10-22T05:56:36.852Z,100195.56
2023-10-22T05:59:09.704Z,100206.44
2023-10-22T06:01:40.028Z,100211.59
2023-10-22T06:04:07.939Z,100218.53
2023-10-22T06:06:39.902Z,100220.31
2023-10-22T06:09:09.101Z,100222.28
2023-10-22T06:11:36.156Z,100220.69
2023-10-22T06:14:04.141Z,100223.47
2023-10-22T06:16:32.908Z,100235.72
2023-10-22T06:19:00.073Z,100232.78
2023-10-22T06:21:29.122Z,100246.59
2023-10-22T06:23:55.747Z,100244.22
2023-10-22T06:26:22.322Z,100257.28
2023-10-22T06:28:49.297Z,100260.06
2023-10-22T06:31:18.561Z,100267.97
2023-10-22T06:33:45.307Z,100270.53
2023-10-22T06:36:15.934Z,100286.75
2023-10-22T06:38:44.100Z,100283.38
2023-10-22T06:41:20.586Z,100281.81
2023-10-22T06:43:48.285Z,100285.38
2023-10-22T06:46:18.407Z,100293.28
2023-10-22T06:48:48.861Z,100296.03
2023-10-22T06:51:17.058Z,100290.50
2023-10-22T06:53:45.715Z,100302.97
2023-10-22T06:56:13.380Z,100306.72
2023-10-22T06:58:42.981Z,100318.59
2023-10-22T07:01:14.487Z,100324.94
2023-10-22T07:03:45.642Z,100328.50
2023-10-22T07:06:16.305Z,100328.28
2023-10-22T07:08:46.634Z,100336.22
2023-10-22T07:11:13.594Z,100341.13
2023-10-22T07:13:40.887Z,100340.34
2023-10-22T07:16:08.656Z,100341.94
2023-10-22T07:18:35.355Z,100352.41
2023-10-22T07:21:04.974Z,100352.63
2023-10-22T07:23:33.176Z,100370.63
2023-10-22T07:26:02.692Z,100368.63
2023-10-22T07:28:31.808Z,100379.53
2023-10-22T07:31:00.826Z,100378.94
2023-10-22T07:33:28.638Z,100392.19
2023-10-22T07:36:01.405Z,100387.84
2023-10-22T07:38:33.128Z,100392.59
2023-10-22T07:40:59.859Z,100391.81
2023-10-22T07:43:31.275Z,100404.88
2023-10-22T07:46:05.772Z,100406.47
2023-10-22T07:48:35.852Z,100406.88
2023-10-22T07:51:12.186Z,100413.78
2023-10-22T07:53:39.352Z,100402.13
2023-10-22T07:56:09.593Z,100409.63
2023-10-22T07:58:37.815Z,100419.91
2023-10-22T08:01:05.636Z,100425.66
2023-10-22T08:03:32.432Z,100424.28
2023-10-22T08:06:00.315Z,100428.03
2023-10-22T08:08:29.339Z,100428.63
2023-10-22T08:11:03.919Z,100430.59
2023-10-22T08:13:30.744Z,100436.75
2023-10-22T08:15:57.841Z,100447.41
2023-10-22T08:18:25.127Z,100443.63
2023-10-22T08:20:51.868Z,100442.41
2023-10-22T08:23:18.705Z,100441.28
2023-10-22T08:25:54.193Z,100446.03
2023-10-22T08:28:23.692Z,100445.06
2023-10-22T08:30:51.037Z,100452.72
2023-10-22T08:33:20.490Z,100460.41
2023-10-22T08:35:47.177Z,100456.81
2023-10-22T08:38:16.080Z,100461.38
2023-10-22T08:40:42.979Z,100461.13
2023-10-22T08:43:20.142Z,100466.34
2023-10-22T08:45:52.571Z,100469.91
2023-10-22T08:48:19.891Z,100474.81
2023-10-22T08:50:49.536Z,100481.00
2023-10-22T08:53:18.845Z,100496.06
2023-10-22T08:55:47.534Z,100496.56
2023-10-22T08:58:20.504Z,100500.41
2023-10-22T09:00:53.354Z,100503.28
2023-10-22T09:03:22.074Z,100506.56
2023-10-22T09:05:49.436Z,100504.22
2023-10-22T09:08:16.625Z,100509.72
2023-10-22T09:10:48.422Z,100518.06
2023-10-22T09:13:21.747Z,100523.06
2023-10-22T09:15:52.357Z,100526.88
2023-10-22T09:18:19.875Z,100531.44
2023-10-22T09:20:47.840Z,100529.84
2023-10-22T09:23:26.994Z,100529.78
2023-10-22T09:25:57.282Z,100527.53
2023-10-22T09:28:26.013Z,100535.91
2023-10-22T09:31:05.769Z,100539.00
2023-10-22T09:33:33.778Z,100538.19
2023-10-22T09:36:05.278Z,100537.38
2023-10-22T09:38:42.338Z,100547.66
2023-10-22T09:41:12.386Z,100545.72
2023-10-22T09:43:39.379Z,100556.69
2023-10-22T09:46:09.017Z,100563.50
2023-10-22T09:48:41.928Z,100566.91
2023-10-22T09:51:14.605Z,100567.16
2023-10-22T09:53:53.068Z,100564.34
2023-10-22T09:56:26.551Z,100572.00
2023-10-22T09:59:19.127Z,100563.00
2023-10-22T10:01:46.293Z,100567.53
2023-10-22T10:04:15.357Z,100570.91
2023-10-22T10:06:47.560Z,100569.84
2023-10-22T10:09:17.477Z,100572.31
2023-10-22T10:11:48.310Z,100576.16
2023-10-22T10:14:37.991Z,100580.94
2023-10-22T10:17:07.964Z,100580.66
2023-10-22T10:19:34.576Z,100586.75
2023-10-22T10:22:01.226Z,100587.53
2023-10-22T10:24:31.618Z,100596.47
2023-10-22T10:26:58.428Z,100595.88
2023-10-22T10:29:30.976Z,100606.63
2023-10-22T10:32:20.767Z,100598.44
2023-10-22T10:35:00.870Z,100601.16
2023-10-22T10:37:32.322Z,100610.66
2023-10-22T10:40:01.448Z,100615.78
2023-10-22T10:42:31.075Z,100612.97
2023-10-22T10:45:03.103Z,100615.06
2023-10-22T10:47:41.132Z,100612.94
2023-10-22T10:50:08.480Z,100616.84
2023-10-22T10:52:43.876Z,100624.25
2023-10-22T10:55:17.594Z,100620.84
2023-10-22T10:57:54.329Z,100619.03
2023-10-22T11:00:28.456Z,100624.91
2023-10-22T11:03:07.535Z,100619.59
2023-10-22T11:05:41.401Z,100633.66
2023-10-22T11:08:21.952Z,100630.47
2023-10-22T11:10:48.555Z,100628.91
2023-10-22T11:13:26.154Z,100628.13
2023-10-22T11:15:54.888Z,100625.75
2023-10-22T11:18:22.627Z,100624.63
2023-10-22T11:20:58.223Z,100636.06
2023-10-22T11:23:29.713Z,100641.72
2023-10-22T11:25:57.493Z,100640.28
2023-10-22T11:28:24.948Z,100644.75
2023-10-22T11:30:51.523Z,100644.06
2023-10-22T11:33:34.541Z,100643.41
2023-10-22T11:36:16.820Z,100647.78
2023-10-22T11:38:43.409Z,100655.63
2023-10-22T11:41:09.960Z,100657.19
2023-10-22T11:43:44.597Z,100655.16
2023-10-22T11:46:16.220Z,100659.66
2023-10-22T11:48:45.766Z,100659.72
2023-10-22T11:51:12.316Z,100660.28
2023-10-22T11:53:42.594Z,100667.31
2023-10-22T11:56:11.429Z,100668.53
2023-10-22T11:58:44.443Z,100668.38
2023-10-22T12:01:12.166Z,100676.94
2023-10-22T12:03:38.731Z,100689.94
2023-10-22T12:06:10.069Z,100679.47
2023-10-22T12:08:36.862Z,100686.13
2023-10-22T12:11:05.663Z,100694.81
2023-10-22T12:13:34.472Z,100690.50
2023-10-22T12:16:01.326Z,100690.63
2023-10-22T12:18:30.325Z,100691.47
2023-10-22T12:20:57.384Z,100695.06
2023-10-22T12:23:26.242Z,100697.22
2023-10-22T12:25:52.872Z,100705.78
2023-10-22T12:28:19.581Z,100703.00
2023-10-22T12:30:48.424Z,100713.03
2023-10-22T12:33:17.263Z,100707.72
2023-10-22T12:35:43.894Z,100705.88
2023-10-22T12:38:15.355Z,100706.91
2023-10-22T12:40:41.892Z,100709.03
2023-10-22T12:43:08.437Z,100713.47
2023-10-22T12:45:39.664Z,100713.03
2023-10-22T12:48:06.416Z,100718.84
2023-10-22T12:50:35.535Z,100719.81
2023-10-22T12:53:02.060Z,100727.16
2023-10-22T12:55:33.370Z,100718.78
2023-10-22T12:58:00.043Z,100726.53
2023-10-22T13:00:26.600Z,100727.38
2023-10-22T13:02:53.409Z,100737.41
2023-10-22T13:05:22.321Z,100733.00
2023-10-22T13:07:48.912Z,100733.34
2023-10-22T13:10:15.467Z,100737.03
2023-10-22T13:12:58.040Z,100739.34
2023-10-22T13:15:28.897Z,100742.31
2023-10-22T13:17:57.960Z,100752.47
2023-10-22T13:20:29.430Z,100744.72
2023-10-22T13:22:55.900Z,100757.94
2023-10-22T13:25:22.476Z,100752.38
2023-10-22T13:27:49.047Z,100753.94
2023-10-22T13:30:18.061Z,100757.13
2023-10-22T13:32:46.905Z,100756.19
2023-10-22T13:35:18.256Z,100753.00
2023-10-22T13:37:44.765Z,100761.09
2023-10-22T13:40:14.081Z,100766.72
2023-10-22T13:42:43.172Z,100762.47
2023-10-22T13:45:10.646Z,100759.91
2023-10-22T13:47:39.690Z,100765.97
2023-10-22T13:50:10.209Z,100771.53
2023-10-22T13:52:39.432Z,100768.72
2023-10-22T13:55:06.225Z,100775.63
2023-10-22T13:57:32.931Z,100775.28
2023-10-22T14:00:01.733Z,100774.94
2023-10-22T14:02:32.935Z,100779.19
2023-10-22T14:05:01.808Z,100782.81
2023-10-22T14:07:30.665Z,100788.34
2023-10-22T14:09:57.185Z,100796.06
2023-10-22T14:12:23.812Z,100789.13
2023-10-22T14:14:53.912Z,100784.75
2023-10-22T14:17:22.996Z,100794.09
2023-10-22T14:19:53.387Z,100793.88
2023-10-22T14:22:20.151Z,100798.59
2023-10-22T14:24:55.615Z,100800.34
2023-10-22T14:27:23.917Z,100810.22
2023-10-22T14:29:51.674Z,100807.41
2023-10-22T14:32:21.731Z,100812.25
2023-10-22T14:34:57.313Z,100810.00
2023-10-22T14:37:26.649Z,100818.03
2023-10-22T14:39:55.384Z,100818.28
2023-10-22T14:42:21.954Z,100823.63
2023-10-22T14:44:53.087Z,100826.16
2023-10-22T14:47:22.267Z,100828.38
2023-10-22T14:49:51.376Z,100833.16
2023-10-22T14:52:17.973Z,100829.41
2023-10-22T14:54:44.518Z,100836.19
2023-10-22T14:57:13.590Z,100831.81
2023-10-22T14:59:42.307Z,100827.88
2023-10-22T15:02:10.156Z,100828.88
2023-10-22T15:04:37.563Z,100837.22
2023-10-22T15:07:11.346Z,100841.19
2023-10-22T15:09:45.744Z,100838.00
2023-10-22T15:12:12.321Z,100841.94
2023-10-22T15:14:38.864Z,100835.97
2023-10-22T15:17:07.857Z,100842.34
2023-10-22T15:19:36.887Z,100848.91
2023-10-22T15:22:03.721Z,100847.50
2023-10-22T15:24:30.361Z,100842.66
2023-10-22T15:26:59.126Z,100852.63
2023-10-22T15:29:33.699Z,100849.88
2023-10-22T15:32:04.158Z,100857.88
2023-10-22T15:34:33.226Z,100859.72
2023-10-22T15:37:02.054Z,100859.56
2023-10-22T15:39:33.868Z,100867.56
2023-10-22T15:42:01.083Z,100870.38
2023-10-22T15:44:27.610Z,100869.38
2023-10-22T15:46:57.953Z,100869.38
2023-10-22T15:49:24.528Z,100875.13
2023-10-22T15:51:53.571Z,100877.13
2023-10-22T15:54:24.935Z,100877.50
2023-10-22T15:56:53.921Z,100884.66
2023-10-22T15:59:22.907Z,100884.25
2023-10-22T16:01:49.436Z,100886.88
2023-10-22T16:04:18.333Z,100889.06
2023-10-22T16:06:47.228Z,100894.63
2023-10-22T16:09:13.804Z,100898.44
2023-10-22T16:11:40.403Z,100905.78
2023-10-22T16:14:09.438Z,100913.69
2023-10-22T16:16:38.388Z,100910.31
2023-10-22T16:19:07.365Z,100915.28
2023-10-22T16:21:36.485Z,100923.03
2023-10-22T16:24:06.853Z,100919.25
2023-10-22T16:26:33.400Z,100924.16
2023-10-22T16:29:02.305Z,100930.88
2023-10-22T16:31:29.581Z,100928.50
2023-10-22T16:33:58.282Z,100925.88
2023-10-22T16:36:24.834Z,100927.22
2023-10-22T16:38:53.777Z,100937.16
2023-10-22T16:41:20.820Z,100935.72
2023-10-22T16:43:51.876Z,100936.47
2023-10-22T16:46:20.875Z,100943.16
2023-10-22T16:48:53.233Z,100941.16
2023-10-22T16:51:20.602Z,100953.66
2023-10-22T16:53:47.835Z,100945.13
2023-10-22T16:56:15.822Z,100942.94
2023-10-22T16:58:42.374Z,100953.81
2023-10-22T17:01:13.944Z,100958.56
2023-10-22T17:03:41.246Z,100961.94
2023-10-22T17:06:08.306Z,100958.19
2023-10-22T17:08:34.921Z,100963.50
2023-10-22T17:11:01.469Z,100974.16
2023-10-22T17:13:27.975Z,100977.09
2023-10-22T17:15:54.558Z,100982.78
2023-10-22T17:18:21.334Z,100983.28
2023-10-22T17:20:50.154Z,100983.47
2023-10-22T17:23:17.106Z,100985.75
2023-10-22T17:25:49.712Z,100990.75
2023-10-22T17:28:17.694Z,100997.09
2023-10-22T17:30:47.306Z,100998.88
2023-10-22T17:33:16.563Z,101004.81
2023-10-22T17:35:43.184Z,101005.16
2023-10-22T17:38:09.714Z,101013.81
2023-10-22T17:40:41.914Z,101021.09
2023-10-22T17:43:10.818Z,101013.31
2023-10-22T17:45:43.055Z,101019.00
2023-10-22T17:48:09.973Z,101029.50
2023-10-22T17:50:36.598Z,101028.53
2023-10-22T17:53:15.598Z,101027.22
2023-10-22T17:56:02.803Z,101027.78
2023-10-22T17:58:35.272Z,101033.34
2023-10-22T18:01:01.904Z,101035.75
2023-10-22T18:03:28.762Z,101037.34
2023-10-22T18:06:05.214Z,101044.28
2023-10-22T18:08:34.891Z,101044.63
2023-10-22T18:11:04.573Z,101047.53
2023-10-22T18:13:32.340Z,101049.16
2023-10-22T18:15:59.322Z,101062.81
2023-10-22T18:18:26.184Z,101058.25
2023-10-22T18:21:00.969Z,101055.81
2023-10-22T18:23:27.467Z,101057.13
2023-10-22T18:26:05.205Z,101064.03
2023-10-22T18:28:37.577Z,101062.78
2023-10-22T18:31:08.595Z,101062.53
2023-10-22T18:33:38.183Z,101062.44
2023-10-22T18:36:05.964Z,101065.53
2023-10-22T18:38:36.157Z,101068.56
2023-10-22T18:41:14.672Z,101067.31
2023-10-22T18:43:44.082Z,101067.22
2023-10-22T18:46:14.907Z,101069.41
2023-10-22T18:48:45.825Z,101073.63
2023-10-22T18:51:16.071Z,101082.00
2023-10-22T18:53:45.278Z,101078.34
2023-10-22T18:56:14.304Z,101086.88
2023-10-22T18:58:41.403Z,101088.47
2023-10-22T19:01:28.054Z,101087.19
2023-10-22T19:03:59.063Z,101090.41
2023-10-22T19:06:32.277Z,101087.94
2023-10-22T19:09:02.180Z,101095.63
2023-10-22T19:11:30.401Z,101097.38
2023-10-22T19:13:57.624Z,101097.09
2023-10-22T19:16:25.685Z,101104.16
2023-10-22T19:18:55.657Z,101103.56
2023-10-22T19:21:22.566Z,101110.75
2023-10-22T19:23:51.436Z,101112.66
2023-10-22T19:26:26.882Z,101115.94
2023-10-22T19:28:53.385Z,101119.69
2023-10-22T19:31:20.562Z,101118.59
2023-10-22T19:33:49.685Z,101126.66
2023-10-22T19:36:20.126Z,101130.34
2023-10-22T19:38:49.080Z,101122.53
2023-10-22T19:41:24.931Z,101132.97
2023-10-22T19:43:56.273Z,101133.47
2023-10-22T19:46:25.541Z,101129.94
2023-10-22T19:48:54.754Z,101135.94
2023-10-22T19:51:21.317Z,101136.44
2023-10-22T19:53:47.892Z,101140.59
2023-10-22T19:56:18.781Z,101141.69
2023-10-22T19:58:45.806Z,101149.25
2023-10-22T20:01:23.400Z,101146.66
2023-10-22T20:03:54.045Z,101153.41
2023-10-22T20:06:23.411Z,101157.31
2023-10-22T20:08:53.680Z,101166.47
2023-10-22T20:11:23.901Z,101170.00
2023-10-22T20:13:53.998Z,101162.19
2023-10-22T20:16:23.021Z,101165.88
2023-10-22T20:18:53.288Z,101164.78
2023-10-22T20:21:21.133Z,101170.88
2023-10-22T20:23:48.340Z,101166.22
2023-10-22T20:26:15.125Z,101170.69
2023-10-22T20:28:45.962Z,101171.50
2023-10-22T20:31:17.737Z,101168.94
2023-10-22T20:33:46.673Z,101171.19
2023-10-22T20:36:15.584Z,101170.59
2023-10-22T20:38:42.419Z,101181.31
2023-10-22T20:41:11.602Z,101184.97
2023-10-22T20:43:38.250Z,101175.22
2023-10-22T20:46:08.544Z,101178.28
2023-10-22T20:48:36.920Z,101178.09
2023-10-22T20:51:10.477Z,101186.75
2023-10-22T20:53:38.182Z,101183.69
2023-10-22T20:56:08.967Z,101178.91
2023-10-22T20:58:36.740Z,101191.56
2023-10-22T21:01:08.625Z,101183.06
2023-10-22T21:03:37.796Z,101183.06
2023-10-22T21:06:04.616Z,101183.69
2023-10-22T21:08:33.760Z,101181.97
2023-10-22T21:11:00.399Z,101193.00
2023-10-22T21:13:29.042Z,101191.88
2023-10-22T21:15:55.613Z,101188.84
2023-10-22T21:18:24.742Z,101196.53
2023-10-22T21:20:56.054Z,101187.06
2023-10-22T21:23:25.067Z,101193.66
2023-10-22T21:25:54.252Z,101187.25
2023-10-22T21:28:21.210Z,101188.34
2023-10-22T21:30:48.766Z,101189.63
2023-10-22T21:33:24.616Z,101188.34
2023-10-22T21:36:04.566Z,101187.06
2023-10-22T21:38:31.307Z,101194.41
2023-10-22T21:40:58.192Z,101194.75
2023-10-22T21:43:25.097Z,101204.78
2023-10-22T21:45:51.973Z,101207.97
2023-10-22T21:48:21.103Z,101211.66
2023-10-22T21:50:47.736Z,101206.66
2023-10-22T21:53:14.263Z,101206.88
2023-10-22T21:55:40.742Z,101215.34
2023-10-22T21:58:12.114Z,101215.34
2023-10-22T22:00:39.018Z,101212.63
2023-10-22T22:03:06.053Z,101213.56
2023-10-22T22:05:35.281Z,101214.69
2023-10-22T22:08:04.288Z,101219.47
2023-10-22T22:10:30.831Z,101218.03
2023-10-22T22:13:00.265Z,101222.19
2023-10-22T22:15:26.855Z,101218.97
2023-10-22T22:17:56.189Z,101212.03
2023-10-22T22:20:24.942Z,101216.53
2023-10-22T22:22:56.152Z,101219.88
2023-10-22T22:25:29.927Z,101221.81
2023-10-22T22:28:07.963Z,101218.91
2023-10-22T22:30:37.018Z,101227.69
2023-10-22T22:33:06.321Z,101217.31
2023-10-22T22:35:35.342Z,101226.75
2023-10-22T22:38:04.244Z,101228.19
2023-10-22T22:40:33.436Z,101243.72
2023-10-22T22:42:59.985Z,101235.41
2023-10-22T22:45:26.830Z,101236.66
2023-10-22T22:47:53.468Z,101234.56
2023-10-22T22:50:20.287Z,101241.09
2023-10-22T22:52:46.942Z,101244.16
2023-10-22T22:55:15.958Z,101252.34
2023-10-22T22:57:42.478Z,101251.03
2023-10-22T23:00:10.820Z,101253.59
2023-10-22T23:02:40.577Z,101249.38
2023-10-22T23:05:10.128Z,101253.34
2023-10-22T23:07:39.761Z,101252.53
2023-10-22T23:10:08.689Z,101264.09
2023-10-22T23:12:35.576Z,101258.16
2023-10-22T23:15:04.667Z,101268.88
2023-10-22T23:17:33.629Z,101265.06
2023-10-22T23:20:02.708Z,101266.66
2023-10-22T23:22:29.223Z,101271.00
2023-10-22T23:24:55.836Z,101272.75
2023-10-22T23:27:22.408Z,101266.38
2023-10-22T23:29:49.133Z,101271.34
2023-10-22T23:32:15.742Z,101269.06
2023-10-22T23:34:42.468Z,101265.72
2023-10-22T23:37:09.211Z,101261.91
2023-10-22T23:39:38.071Z,101268.94
2023-10-22T23:42:04.760Z,101268.78
2023-10-22T23:44:31.292Z,101281.75
2023-10-22T23:47:02.615Z,101284.38
2023-10-22T23:49:31.663Z,101282.16
2023-10-22T23:51:58.234Z,101278.34
2023-10-22T23:54:24.809Z,101282.22
2023-10-22T23:56:51.406Z,101287.34
2023-10-22T23:59:18.495Z,101283.03
